x

Buoy B01 - Western Maine Shelf (44030) Wave Buoy

11:04 - Thu 20th Jul 2017 All times are EDT. -4 hours from GMT.

  • Sig Wave height 1.6ft
  • Peak Period 6s
  • Wind
    4mph, 7mph gusts
  • Sea Temp 70°f
  • Ar Temp 75°f
  • Sea Pressure 1013mb
  • Buoy B01 - Western Maine Shelf
  • Buoy B01 - Western Maine Shelf

More Historic Weather Station data

Upgrade to MSW Pro to gain access to the past 30 days of data for over 8000 Wavebouys and Weather Stations around the globe.

Join Pro

Comparision Forecast

View Surf forecast
   
Qui 07/20 11:04 1.6ft 6s 4 7 mph 1013mb 70f 75f
10:04 1.6ft 5s 4 7 mph 1012.8mb 70f 74f
9:04 1.6ft 5s 7 9 mph 1013.1mb 70f 72f
8:04 1.6ft 6s 7 7 mph 1013.3mb 69f 71f
7:04 1.6ft 8s 9 11 mph 1013.3mb 69f 71f
6:04 1.6ft 6s 7 9 mph 1013mb 69f 70f
5:04 1.6ft 6s 7 9 mph 1013mb 69f 70f
4:04 1.6ft 8s 7 7 mph 1012.8mb 69f 71f
3:04 2ft 11s 4 4 mph 1013mb 69f 71f
2:04 1ft 5s 4 7 mph 1013.4mb 69f 71f
1:04 1.6ft 8s 4 4 mph 1013.3mb 70f 71f
12:04 1.6ft 6s 2 4 mph 1013.5mb 70f 70f
Qua 07/19 11:04 1.6ft 6s 2 4 mph 1013.3mb 70f 71f
10:04 1.6ft 8s 2 2 mph 1013.4mb 70f 70f
9:04 1.3ft 6s 2 4 mph 1013mb 70f 70f
8:04 1.6ft 8s 2 4 mph 1012.4mb 70f 70f
7:04 2ft 6s 4 4 mph 1012.3mb 69f 71f
6:04 0.7ft  -  2 2 mph 1012.4mb 69f 72f
5:04 1.6ft 6s 2 4 mph 1012.7mb 69f 71f
3:04 2ft 16s 7 9 mph 1013.7mb 68f 68f
2:04 1ft 5s 7 9 mph 1014.5mb 68f 66f
1:04 1.6ft 8s 9 11 mph 1015.2mb 68f 65f
12:04 1.3ft 6s 9 9 mph 1015.8mb 68f 65f
11:04 1.6ft 6s 7 7 mph 1016.1mb 67f 66f
10:04 1.3ft 5s 4 7 mph 1016.4mb 67f 66f
9:04 2ft 8s 2 4 mph 1016.6mb 67f 66f
8:04 1.6ft 6s 2 2 mph 1016.8mb 67f 67f
7:04 2.5ft 6s 4 4 mph 1016.6mb 67f 67f
6:04 2ft 6s 2 2 mph 1016.5mb 67f 66f
5:04 2ft 6s 2 2 mph 1016.6mb 67f 67f
4:04 2ft 6s 2 4 mph 1016.7mb 67f 67f
3:04 2ft 8s 7 9 mph 1016.6mb 67f 67f
2:04 2.5ft 8s 9 11 mph 1016.8mb 67f 66f
1:04 2.5ft 8s 4 4 mph 1017mb 67f 66f
12:04 2ft 8s 2 4 mph 1017.3mb 67f 67f
Ter 07/18 11:04 2.5ft 6s 4 4 mph 1017.2mb 67f 67f
10:04 2.5ft 11s 7 7 mph 1017.4mb 67f 67f
9:04 2ft 8s 7 7 mph 1017.3mb 67f 67f
8:04 2ft 6s 2 4 mph 1017.4mb 67f 67f
7:04 2ft 6s 4 7 mph 1017.2mb 66f 67f
6:04 1.6ft 6s 9 11 mph 1016.5mb 66f 66f
5:04 2.5ft 8s 11 13 mph 1016.8mb 67f 67f
4:04 2.5ft 8s 11 13 mph 1017.1mb 66f 68f
3:04 1.3ft 2s 13 16 mph 1017.5mb 66f 67f
2:04 1.3ft 4s 13 16 mph 1018mb 66f 66f
1:04 2ft 8s 11 13 mph 1018.7mb 66f 66f
12:04 1ft 4s 11 13 mph 1019.5mb 66f 65f
11:04 1ft 4s 9 9 mph 1019.6mb 66f 66f
10:04 2ft 6s 7 9 mph 1019.9mb 65f 66f
9:04 2ft 6s 4 4 mph 1019.8mb 65f 66f
8:04 2.5ft 6s 4 7 mph 1019.7mb 65f 65f
7:04 2.5ft 8s 7 7 mph 1019.4mb 65f 65f
6:04 2.5ft 6s 7 9 mph 1019.2mb 65f 64f
5:04 2.5ft 8s 9 9 mph 1018.9mb 64f 64f
4:04 2.5ft 5s 9 11 mph 1018.7mb 64f 64f
3:04 2.5ft 5s 4 7 mph 1018.7mb 64f 64f
2:04 2.5ft 6s 4 7 mph 1019.1mb 64f 65f
1:04 2.5ft 4s 11 13 mph 1019.4mb 64f 66f
12:04 3ft 8s 16 18 mph 1019.7mb 64f 66f
Seg 07/17 11:04 2.5ft 8s 13 16 mph 1019.6mb 65f 66f
10:04 2.5ft 4s 13 16 mph 1019mb 65f 66f
9:04 2.5ft 4s 18 20 mph 1018.3mb 65f 67f
8:04 2.5ft 6s 16 18 mph 1018.2mb 65f 67f
7:04 2.5ft 8s 11 13 mph 1018.4mb 65f 67f
6:04 2.5ft 6s 11 13 mph 1017.9mb 66f 68f
5:04 2ft 8s 9 11 mph 1017.7mb 66f 68f
4:04 2ft 8s 11 13 mph 1017.5mb 67f 68f
3:04 1.6ft 8s 9 11 mph 1017.9mb 67f 68f
2:04 2ft 6s 4 7 mph 1018.3mb 67f 68f
1:04 1.6ft 8s 4 7 mph 1018.7mb 66f 67f
12:04 1.6ft 8s 7 7 mph 1018.9mb 66f 66f
11:04 1.6ft 8s 7 9 mph 1019.1mb 65f 66f
10:04 2ft 8s 2 4 mph 1018.9mb 64f 66f
9:04 1.6ft 6s 4 7 mph 1018.2mb 64f 66f
8:04 2ft 8s 7 9 mph 1017.7mb 64f 65f
7:04 2ft 6s 4 7 mph 1017.3mb 64f 64f
6:04 2.5ft 6s 2 2 mph 1016.8mb 64f 65f
5:04 2ft 6s 2 4 mph 1016.2mb 64f 64f
4:04 2ft 6s 4 4 mph 1015.8mb 64f 65f
3:04 1.6ft 8s 2 4 mph 1015.8mb 64f 65f
2:04 1.6ft 8s 4 4 mph 1016mb 64f 65f
12:04 1.6ft 8s 2 4 mph 1016mb 64f 65f
Dom 07/16 11:04 1.6ft 8s 4 4 mph 1015.6mb 64f 65f
10:04 2ft 6s 4 7 mph 1015.2mb 64f 65f
9:04 2ft 6s 7 7 mph 1014.8mb 64f 65f
8:04 2ft 6s 7 7 mph 1014.1mb 64f 65f
7:04 2.5ft 8s 9 11 mph 1013.6mb 64f 66f
6:04 2.5ft 8s 11 13 mph 1013mb 64f 67f